Flight EZE84D

  • Submitted By: Dave Hardy
  • Departure Airport: Leeds Bradford (EGNM)
  • Arrival Airport: Southampton (EGHI)
  • Aircraft: JS41 (G-MAJA)
  • Flight Time: 0.49
  • Date Submitted: 05/27/2009
  • Status: Accepted
Flight Details
Gross Revenue:
(17 load / £ 0.00 per unit
£ 0.00
Fuel Cost:
(1055 fuel used @ 0 / unit)
£ 0.00

Flight Details

  • VATAWARE Link: -

Additional Log Information:

View Log

[2009/05/27 15:05:00]
Flight IATA:EZE84D
Pilot Number:EZE0001
Company ICAO:EZE
Aircraft Type:JS41
PAX:17
Aircraft Registration:SB20
Departing Airport: EGNM
Destination Airport: EGHI
Online: VATSIM
Route:POL..MCT..LISTO.N615.HON
Flight Level:19000
15:05 Zero fuel Weight: 17982 Lbs, Fuel Weight: 5811 Lbs
15:05 VATSIM:EGNM 271420Z 26014KT 220V290 9999 SCT006 BKN010 14/11 Q1013
15:05 VATSIM:EGHI 271420Z 21010KT 9000 VCSH SCT009 BKN012 13/12 Q1021
15:15 Parking Brakes off
15:15 Com1 Freq=120.30
15:23 VR= 122 Knots
15:23 V2= 125 Knots
15:23 Take-off
15:23 Take off Weight: 23747 Lbs
15:23 Wind: 248 @ 013 Knots Heading: 313
15:23 POS N53 52 16 W001 40 05
15:23 N11 36 N12 36
15:23 Gear Up: 126 Knots
15:23 Flaps: at 126 Knots
15:24 Com1 Freq=121.30
15:24 Com1 Freq=122.30
15:24 Com1 Freq=122.05
15:24 Com1 Freq=122.82
15:24 Com1 Freq=122.80
15:26 Flaps: at 170 Knots
15:32 TOC
15:32 Fuel Weight: 5390 Lb
15:38 Wind:299@061 Knots Heading: 163 Ground Speed: 369 Knots Altitude 19078 ft
15:51 TOD
15:51 Fuel Weight: 4842 Lb
15:53 Wind:301@049 Knots Heading: 181 Ground Speed: 280 Knots Altitude 15787 ft
15:58 Flaps: at 183 Knots
15:58 Gear Down: 135 Knots
15:58 Flaps: at 135 Knots
16:00 Flaps: at 159 Knots
16:01 TouchDown:Rate -40 ft/min Speed: 114 Knots
16:01 VATSIM:EGHI 271520Z 22010KT 190V250 7000 -DZ SCT008 BKN012 14/12 Q1021
16:01 Land
16:01 Wind:225@009 Knots
16:01 Heading: 199
16:01 Flight Duration: 00:38
16:01 Landing Weight: 22751 Lbs
16:01 POS N50 57 02 W001 21 24
16:04 Parking brakes on
16:04 Block to Block Duration: 00:49
16:04 Final Fuel: 4755 Lbls
16:04 Spent Fuel: 1055 Lbls
16:04 Flight Length: 182 NM
16:04 TOD Land Length: 38 NM

Route Map